createdAt,value
2023-06-10T00:01:13.753Z,15.48
2023-06-10T00:03:40.765Z,15.60
2023-06-10T00:06:08.146Z,15.59
2023-06-10T00:08:35.015Z,15.54
2023-06-10T00:11:01.885Z,15.57
2023-06-10T00:13:29.617Z,15.52
2023-06-10T00:15:56.458Z,15.41
2023-06-10T00:18:23.348Z,15.32
2023-06-10T00:20:50.163Z,15.39
2023-06-10T00:23:17.067Z,15.21
2023-06-10T00:25:43.877Z,15.27
2023-06-10T00:28:10.849Z,15.20
2023-06-10T00:30:37.696Z,15.20
2023-06-10T00:33:04.628Z,15.17
2023-06-10T00:35:31.548Z,15.18
2023-06-10T00:38:00.559Z,15.31
2023-06-10T00:40:27.423Z,15.37
2023-06-10T00:42:54.296Z,15.43
2023-06-10T00:45:22.104Z,15.23
2023-06-10T00:47:49.349Z,15.23
2023-06-10T00:50:16.323Z,15.22
2023-06-10T00:52:43.589Z,15.39
2023-06-10T00:55:10.803Z,15.25
2023-06-10T00:57:38.162Z,15.29
2023-06-10T01:00:05.566Z,15.19
2023-06-10T01:02:34.058Z,15.20
2023-06-10T01:05:01.628Z,15.12
2023-06-10T01:07:47.185Z,15.27
2023-06-10T01:10:25.230Z,15.26
2023-06-10T01:13:06.823Z,14.91
2023-06-10T01:15:36.080Z,14.94
2023-06-10T01:18:09.007Z,14.88
2023-06-10T01:20:37.871Z,14.69
2023-06-10T01:23:04.868Z,14.43
2023-06-10T01:25:32.015Z,14.50
2023-06-10T01:28:27.820Z,14.54
2023-06-10T01:31:04.989Z,14.48
2023-06-10T01:33:36.942Z,14.50
2023-06-10T01:36:05.179Z,14.37
2023-06-10T01:38:37.864Z,14.47
2023-06-10T01:41:04.935Z,14.54
2023-06-10T01:43:35.252Z,14.58
2023-06-10T01:46:02.224Z,14.56
2023-06-10T01:48:30.499Z,14.60
2023-06-10T01:50:57.421Z,14.67
2023-06-10T01:53:24.408Z,14.57
2023-06-10T01:55:51.368Z,14.66
2023-06-10T01:58:18.422Z,14.52
2023-06-10T02:00:45.421Z,14.49
2023-06-10T02:03:12.343Z,14.37
2023-06-10T02:05:39.410Z,14.37
2023-06-10T02:08:06.529Z,14.52
2023-06-10T02:10:33.569Z,14.56
2023-06-10T02:13:00.591Z,14.64
2023-06-10T02:15:32.003Z,14.70
2023-06-10T02:17:59.052Z,14.82
2023-06-10T02:20:26.062Z,14.86
2023-06-10T02:22:53.076Z,14.91
2023-06-10T02:25:19.878Z,14.94
2023-06-10T02:27:46.717Z,15.08
2023-06-10T02:30:14.066Z,15.04
2023-06-10T02:32:41.253Z,15.11
2023-06-10T02:35:08.497Z,15.15
2023-06-10T02:37:36.103Z,15.19
2023-06-10T02:40:03.005Z,15.19
2023-06-10T02:42:29.961Z,15.21
2023-06-10T02:44:57.313Z,15.20
2023-06-10T02:47:35.641Z,15.22
2023-06-10T02:50:02.660Z,15.32
2023-06-10T02:52:31.965Z,15.38
2023-06-10T02:54:58.891Z,15.50
2023-06-10T02:57:25.931Z,15.41
2023-06-10T02:59:53.047Z,15.37
2023-06-10T03:02:20.096Z,15.40
2023-06-10T03:04:51.396Z,15.39
2023-06-10T03:07:19.368Z,15.35
2023-06-10T03:09:47.615Z,15.38
2023-06-10T03:12:15.669Z,15.50
2023-06-10T03:14:46.552Z,15.46
2023-06-10T03:17:13.498Z,15.47
2023-06-10T03:19:43.164Z,15.48
2023-06-10T03:22:12.431Z,15.55
2023-06-10T03:24:51.545Z,15.66
2023-06-10T03:27:20.217Z,15.69
2023-06-10T03:29:51.048Z,15.72
2023-06-10T03:32:18.853Z,15.73
2023-06-10T03:34:45.818Z,15.74
2023-06-10T03:37:14.160Z,15.76
2023-06-10T03:39:42.106Z,15.78
2023-06-10T03:42:09.654Z,15.85
2023-06-10T03:44:36.600Z,15.92
2023-06-10T03:47:03.899Z,15.93
2023-06-10T03:49:31.499Z,16.00
2023-06-10T03:52:02.014Z,16.05
2023-06-10T03:54:29.958Z,16.08
2023-06-10T03:56:57.063Z,16.09
2023-06-10T03:59:23.993Z,16.13
2023-06-10T04:01:50.994Z,16.15
2023-06-10T04:04:18.003Z,16.14
2023-06-10T04:06:45.862Z,16.08
2023-06-10T04:09:13.139Z,16.17
2023-06-10T04:11:40.861Z,16.24
2023-06-10T04:14:08.669Z,16.25
2023-06-10T04:16:36.690Z,16.26
2023-06-10T04:19:04.452Z,16.28
2023-06-10T04:21:31.382Z,16.25
2023-06-10T04:23:58.496Z,16.27
2023-06-10T04:26:25.536Z,16.33
2023-06-10T04:28:53.138Z,16.34
2023-06-10T04:31:20.338Z,16.41
2023-06-10T04:33:48.119Z,16.34
2023-06-10T04:36:16.374Z,16.35
2023-06-10T04:38:43.319Z,16.35
2023-06-10T04:41:10.385Z,16.34
2023-06-10T04:43:37.935Z,16.33
2023-06-10T04:46:08.702Z,16.44
2023-06-10T04:48:36.830Z,16.49
2023-06-10T04:51:05.903Z,16.51
2023-06-10T04:53:32.937Z,16.57
2023-06-10T04:55:59.916Z,16.60
2023-06-10T04:58:26.711Z,16.63
2023-06-10T05:00:53.490Z,16.64
2023-06-10T05:03:20.566Z,16.59
2023-06-10T05:05:47.463Z,16.53
2023-06-10T05:08:14.316Z,16.53
2023-06-10T05:10:41.393Z,16.52
2023-06-10T05:13:08.300Z,16.52
2023-06-10T05:15:35.126Z,16.59
2023-06-10T05:18:02.283Z,16.63
2023-06-10T05:20:29.692Z,16.68
2023-06-10T05:22:56.546Z,16.69
2023-06-10T05:25:23.405Z,16.74
2023-06-10T05:27:50.288Z,16.82
2023-06-10T05:30:17.085Z,16.86
2023-06-10T05:32:44.009Z,16.85
2023-06-10T05:35:11.277Z,16.88
2023-06-10T05:37:38.436Z,16.84
2023-06-10T05:40:05.939Z,16.87
2023-06-10T05:42:32.841Z,16.85
2023-06-10T05:44:59.624Z,16.92
2023-06-10T05:47:26.486Z,16.91
2023-06-10T05:49:53.572Z,16.88
2023-06-10T05:52:20.511Z,16.92
2023-06-10T05:54:47.426Z,16.97
2023-06-10T05:57:14.342Z,16.95
2023-06-10T05:59:41.316Z,17.01
2023-06-10T06:02:08.354Z,16.95
2023-06-10T06:04:35.617Z,16.96
2023-06-10T06:07:02.590Z,16.97
2023-06-10T06:09:29.465Z,16.95
2023-06-10T06:11:56.345Z,17.05
2023-06-10T06:14:23.498Z,16.97
2023-06-10T06:16:50.495Z,16.97
2023-06-10T06:19:17.363Z,16.97
2023-06-10T06:21:44.221Z,16.93
2023-06-10T06:24:11.218Z,16.94
2023-06-10T06:26:38.088Z,16.95
2023-06-10T06:29:05.039Z,16.96
2023-06-10T06:31:32.642Z,16.95
2023-06-10T06:33:59.814Z,16.90
2023-06-10T06:36:26.679Z,16.90
2023-06-10T06:38:53.485Z,16.96
2023-06-10T06:41:22.518Z,16.98
2023-06-10T06:43:49.510Z,17.05
2023-06-10T06:46:24.455Z,17.04
2023-06-10T06:48:51.637Z,17.04
2023-06-10T06:51:18.609Z,17.07
2023-06-10T06:53:45.576Z,17.03
2023-06-10T06:56:15.489Z,17.01
2023-06-10T06:58:42.446Z,17.03
2023-06-10T07:01:09.726Z,17.02
2023-06-10T07:03:36.541Z,17.04
2023-06-10T07:06:03.533Z,17.01
2023-06-10T07:08:30.352Z,17.02
2023-06-10T07:10:57.265Z,17.05
2023-06-10T07:13:24.075Z,17.04
2023-06-10T07:15:50.949Z,17.11
2023-06-10T07:18:17.800Z,17.04
2023-06-10T07:20:44.731Z,17.12
2023-06-10T07:23:11.662Z,17.13
2023-06-10T07:25:38.701Z,17.18
2023-06-10T07:28:05.604Z,17.20
2023-06-10T07:30:32.468Z,17.26
2023-06-10T07:32:59.472Z,17.29
2023-06-10T07:35:26.275Z,17.31
2023-06-10T07:37:53.280Z,17.33
2023-06-10T07:40:20.156Z,17.40
2023-06-10T07:42:46.971Z,17.48
2023-06-10T07:45:13.861Z,17.48
2023-06-10T07:47:40.777Z,17.54
2023-06-10T07:50:07.978Z,17.56
2023-06-10T07:52:34.786Z,17.60
2023-06-10T07:55:01.791Z,17.62
2023-06-10T07:57:28.684Z,17.59
2023-06-10T07:59:55.465Z,17.62
2023-06-10T08:02:24.036Z,17.59
2023-06-10T08:04:53.559Z,17.66
2023-06-10T08:07:20.485Z,17.67
2023-06-10T08:09:47.321Z,17.73
2023-06-10T08:12:15.262Z,17.76
2023-06-10T08:14:44.831Z,17.82
2023-06-10T08:17:12.182Z,17.85
2023-06-10T08:19:38.973Z,17.81
2023-06-10T08:22:05.931Z,17.84
2023-06-10T08:24:32.805Z,17.82
2023-06-10T08:26:59.694Z,17.92
2023-06-10T08:29:26.518Z,17.92
2023-06-10T08:31:53.465Z,17.92
2023-06-10T08:34:20.369Z,17.93
2023-06-10T08:36:47.196Z,17.92
2023-06-10T08:39:14.053Z,17.92
2023-06-10T08:41:44.991Z,17.94
2023-06-10T08:44:23.455Z,17.90
2023-06-10T08:46:52.137Z,17.93
2023-06-10T08:49:20.346Z,18.07
2023-06-10T08:51:51.646Z,18.10
2023-06-10T08:54:28.322Z,18.12
2023-06-10T08:56:58.197Z,18.11
2023-06-10T08:59:26.472Z,18.11
2023-06-10T09:01:54.979Z,18.17
2023-06-10T09:04:22.190Z,18.16
2023-06-10T09:06:50.974Z,18.16
2023-06-10T09:09:19.047Z,18.13
2023-06-10T09:11:45.864Z,18.12
2023-06-10T09:14:13.308Z,18.17
2023-06-10T09:16:41.688Z,18.27
2023-06-10T09:19:08.770Z,18.37
2023-06-10T09:21:36.188Z,18.45
2023-06-10T09:24:03.479Z,18.43
2023-06-10T09:26:30.729Z,18.49
2023-06-10T09:29:09.112Z,18.53
2023-06-10T09:31:37.667Z,18.61
2023-06-10T09:34:11.495Z,18.68
2023-06-10T09:36:40.074Z,18.70
2023-06-10T09:39:15.692Z,18.75
2023-06-10T09:41:43.224Z,18.76
2023-06-10T09:44:19.456Z,18.71
2023-06-10T09:46:47.795Z,18.69
2023-06-10T09:49:15.109Z,18.75
2023-06-10T09:51:55.741Z,18.83
2023-06-10T09:54:23.751Z,18.94
2023-06-10T09:56:53.135Z,19.01
2023-06-10T09:59:30.515Z,19.09
2023-06-10T10:01:57.923Z,19.30
2023-06-10T10:04:26.278Z,19.57
2023-06-10T10:06:56.887Z,19.63
2023-06-10T10:09:23.788Z,19.66
2023-06-10T10:11:52.026Z,19.66
2023-06-10T10:14:21.040Z,19.70
2023-06-10T10:16:50.623Z,19.80
2023-06-10T10:19:24.507Z,19.85
2023-06-10T10:21:55.173Z,19.89
2023-06-10T10:24:24.624Z,19.97
2023-06-10T10:26:52.196Z,19.96
2023-06-10T10:29:32.857Z,19.95
2023-06-10T10:32:01.903Z,19.93
2023-06-10T10:34:46.071Z,19.99
2023-06-10T10:37:12.998Z,20.02
2023-06-10T10:39:39.911Z,20.04
2023-06-10T10:42:08.278Z,20.03
2023-06-10T10:44:35.275Z,20.05
2023-06-10T10:47:04.719Z,20.09
2023-06-10T10:49:33.367Z,20.19
2023-06-10T10:52:02.256Z,20.28
2023-06-10T10:54:30.152Z,20.45
2023-06-10T10:57:17.273Z,20.49
2023-06-10T10:59:50.646Z,20.60
2023-06-10T11:02:33.154Z,20.73
2023-06-10T11:05:02.090Z,20.90
2023-06-10T11:07:38.894Z,20.96
2023-06-10T11:10:10.969Z,20.91
2023-06-10T11:12:46.910Z,20.72
2023-06-10T11:15:14.589Z,20.70
2023-06-10T11:18:20.775Z,20.61
2023-06-10T11:20:50.680Z,20.50
2023-06-10T11:23:29.803Z,20.54
2023-06-10T11:26:16.548Z,20.47
2023-06-10T11:29:03.325Z,20.52
2023-06-10T11:31:35.107Z,20.69
2023-06-10T11:34:06.201Z,20.80
2023-06-10T11:36:43.956Z,20.99
2023-06-10T11:39:11.365Z,21.25
2023-06-10T11:41:40.322Z,21.49
2023-06-10T11:44:12.253Z,21.67
2023-06-10T11:46:39.850Z,21.80
2023-06-10T11:49:07.664Z,21.88
2023-06-10T11:51:39.995Z,21.84
2023-06-10T11:54:09.950Z,21.70
2023-06-10T11:56:37.206Z,21.54
2023-06-10T11:59:05.924Z,21.39
2023-06-10T12:01:34.783Z,21.29
2023-06-10T12:04:04.813Z,21.26
2023-06-10T12:06:51.006Z,21.26
2023-06-10T12:09:29.657Z,21.18
2023-06-10T12:12:00.888Z,21.25
2023-06-10T12:14:57.667Z,21.46
2023-06-10T12:17:33.913Z,21.51
2023-06-10T12:20:06.739Z,21.40
2023-06-10T12:22:41.229Z,21.50
2023-06-10T12:25:09.648Z,21.65
2023-06-10T12:27:37.971Z,21.84
2023-06-10T12:30:07.287Z,21.85
2023-06-10T12:32:45.034Z,21.90
2023-06-10T12:35:14.278Z,21.93
2023-06-10T12:37:43.470Z,21.93
2023-06-10T12:40:11.893Z,21.74
2023-06-10T12:42:39.220Z,21.81
2023-06-10T12:45:07.334Z,21.78
2023-06-10T12:47:36.769Z,21.72
2023-06-10T12:50:04.335Z,21.67
2023-06-10T12:52:31.608Z,21.57
2023-06-10T12:54:58.657Z,21.51
2023-06-10T12:57:25.808Z,21.45
2023-06-10T12:59:52.752Z,21.25
2023-06-10T13:02:22.820Z,21.13
2023-06-10T13:04:49.673Z,20.97
2023-06-10T13:07:20.140Z,20.89
2023-06-10T13:09:47.077Z,20.60
2023-06-10T13:12:16.776Z,20.37
2023-06-10T13:14:44.057Z,20.06
2023-06-10T13:17:10.945Z,19.95
2023-06-10T13:19:38.594Z,19.81
2023-06-10T13:22:05.461Z,19.71
2023-06-10T13:24:32.749Z,19.73
2023-06-10T13:26:59.580Z,19.67
2023-06-10T13:29:26.395Z,19.68
2023-06-10T13:31:53.322Z,19.64
2023-06-10T13:34:20.092Z,19.69
2023-06-10T13:36:46.894Z,19.69
2023-06-10T13:39:13.844Z,19.56
2023-06-10T13:41:42.073Z,19.68
2023-06-10T13:44:08.951Z,19.68
2023-06-10T13:46:35.795Z,19.64
2023-06-10T13:49:02.698Z,19.67
2023-06-10T13:51:29.511Z,19.67
2023-06-10T13:53:56.428Z,19.58
2023-06-10T13:56:23.304Z,19.58
2023-06-10T13:58:50.148Z,19.65
2023-06-10T14:01:17.039Z,19.68
2023-06-10T14:03:43.982Z,19.61
2023-06-10T14:06:11.138Z,19.64
2023-06-10T14:08:37.923Z,19.64
2023-06-10T14:11:04.958Z,19.61
2023-06-10T14:13:31.781Z,19.61
2023-06-10T14:15:58.715Z,19.60
2023-06-10T14:18:25.577Z,19.60
2023-06-10T14:20:52.397Z,19.59
2023-06-10T14:23:19.318Z,19.55
2023-06-10T14:25:48.937Z,19.58
2023-06-10T14:28:16.887Z,19.58
2023-06-10T14:30:43.747Z,19.56
2023-06-10T14:33:10.878Z,19.49
2023-06-10T14:35:37.717Z,19.44
2023-06-10T14:38:07.440Z,19.40
2023-06-10T14:40:35.477Z,19.40
2023-06-10T14:43:03.222Z,19.45
2023-06-10T14:45:29.991Z,19.48
2023-06-10T14:47:56.885Z,19.50
2023-06-10T14:50:23.882Z,19.53
2023-06-10T14:52:50.683Z,19.56
2023-06-10T14:55:17.606Z,19.58
2023-06-10T14:57:44.378Z,19.58
2023-06-10T15:00:13.655Z,19.58
2023-06-10T15:02:40.545Z,19.58
2023-06-10T15:05:32.390Z,19.56
2023-06-10T15:07:59.284Z,19.56
2023-06-10T15:10:26.294Z,19.47
2023-06-10T15:12:53.062Z,19.50
2023-06-10T15:15:19.909Z,19.53
2023-06-10T15:17:46.890Z,19.57
2023-06-10T15:20:13.788Z,19.58
2023-06-10T15:22:41.609Z,19.64
2023-06-10T15:25:29.308Z,19.68
2023-06-10T15:27:55.605Z,19.75
2023-06-10T15:30:22.501Z,19.75
2023-06-10T15:32:49.322Z,19.83
2023-06-10T15:35:16.251Z,19.84
2023-06-10T15:37:43.125Z,19.83
2023-06-10T15:40:10.188Z,19.76
2023-06-10T15:42:37.028Z,19.65
2023-06-10T15:45:04.470Z,19.64
2023-06-10T15:47:31.301Z,19.57
2023-06-10T15:49:58.223Z,19.28
2023-06-10T15:52:25.103Z,18.72
2023-06-10T15:54:51.955Z,18.73
2023-06-10T15:57:18.885Z,18.40
2023-06-10T15:59:45.829Z,18.18
2023-06-10T16:02:12.731Z,17.87
2023-06-10T16:04:39.693Z,17.76
2023-06-10T16:07:06.523Z,17.76
2023-06-10T16:09:33.412Z,17.84
2023-06-10T16:12:00.430Z,17.86
2023-06-10T16:14:27.391Z,17.66
2023-06-10T16:16:54.279Z,17.60
2023-06-10T16:19:21.115Z,17.65
2023-06-10T16:21:48.044Z,17.68
2023-06-10T16:24:14.924Z,17.64
2023-06-10T16:26:41.951Z,17.75
2023-06-10T16:29:10.061Z,17.83
2023-06-10T16:31:37.058Z,17.89
2023-06-10T16:34:03.920Z,17.87
2023-06-10T16:36:30.748Z,17.71
2023-06-10T16:38:57.665Z,17.83
2023-06-10T16:41:24.600Z,17.88
2023-06-10T16:43:51.396Z,17.94
2023-06-10T16:46:18.266Z,17.90
2023-06-10T16:48:45.822Z,17.94
2023-06-10T16:51:12.770Z,18.00
2023-06-10T16:53:39.586Z,18.01
2023-06-10T16:56:06.471Z,17.88
2023-06-10T16:58:33.376Z,17.93
2023-06-10T17:01:08.558Z,17.88
2023-06-10T17:03:36.284Z,17.85
2023-06-10T17:06:03.255Z,17.87
2023-06-10T17:08:30.248Z,17.78
2023-06-10T17:10:57.073Z,17.81
2023-06-10T17:13:24.620Z,17.90
2023-06-10T17:15:51.567Z,17.77
2023-06-10T17:18:18.451Z,17.77
2023-06-10T17:20:45.377Z,17.85
2023-06-10T17:23:12.221Z,17.84
2023-06-10T17:25:39.081Z,17.76
2023-06-10T17:28:06.852Z,17.78
2023-06-10T17:30:33.759Z,17.76
2023-06-10T17:33:00.898Z,17.69
2023-06-10T17:35:27.801Z,17.69
2023-06-10T17:37:54.735Z,17.69
2023-06-10T17:40:21.685Z,17.69
2023-06-10T17:42:48.503Z,17.63
2023-06-10T17:45:16.039Z,17.61
2023-06-10T17:47:42.905Z,17.65
2023-06-10T17:50:10.129Z,17.70
2023-06-10T17:52:36.955Z,17.70
2023-06-10T17:55:04.028Z,17.66
2023-06-10T17:57:31.013Z,17.68
2023-06-10T17:59:57.824Z,17.57
2023-06-10T18:02:24.714Z,17.51
2023-06-10T18:04:51.568Z,17.50
2023-06-10T18:07:18.382Z,17.48
2023-06-10T18:09:45.215Z,17.52
2023-06-10T18:12:12.306Z,17.50
2023-06-10T18:14:39.310Z,17.39
2023-06-10T18:17:06.316Z,17.43
2023-06-10T18:19:33.277Z,17.47
2023-06-10T18:22:00.244Z,17.47
2023-06-10T18:24:27.302Z,17.48
2023-06-10T18:26:54.232Z,17.47
2023-06-10T18:29:21.100Z,17.47
2023-06-10T18:31:48.042Z,17.32
2023-06-10T18:34:15.009Z,17.44
2023-06-10T18:36:41.891Z,17.43
2023-06-10T18:39:08.892Z,17.43
2023-06-10T18:41:35.829Z,17.43
2023-06-10T18:44:02.685Z,17.39
2023-06-10T18:46:29.711Z,17.43
2023-06-10T18:48:56.608Z,17.40
2023-06-10T18:51:23.701Z,17.41
2023-06-10T18:53:50.691Z,17.35
2023-06-10T18:56:17.637Z,17.35
2023-06-10T18:58:44.585Z,17.35
2023-06-10T19:01:11.712Z,17.30
2023-06-10T19:03:38.811Z,17.33
2023-06-10T19:06:06.269Z,17.39
2023-06-10T19:08:33.152Z,17.40
2023-06-10T19:11:00.216Z,17.36
2023-06-10T19:13:27.171Z,17.37
2023-06-10T19:15:54.601Z,17.35
2023-06-10T19:18:21.458Z,17.31
2023-06-10T19:20:48.346Z,17.27
2023-06-10T19:23:15.323Z,17.26
2023-06-10T19:25:42.296Z,17.27
2023-06-10T19:28:10.289Z,17.31
2023-06-10T19:30:37.253Z,17.34
2023-06-10T19:33:04.263Z,17.29
2023-06-10T19:35:31.189Z,17.36
2023-06-10T19:37:58.138Z,17.39
2023-06-10T19:40:25.064Z,17.37
2023-06-10T19:42:51.974Z,17.34
2023-06-10T19:45:19.377Z,17.32
2023-06-10T19:47:46.549Z,17.36
2023-06-10T19:50:14.096Z,17.38
2023-06-10T19:52:40.928Z,17.34
2023-06-10T19:55:08.388Z,17.33
2023-06-10T19:57:35.666Z,17.34
2023-06-10T20:00:04.039Z,17.30
2023-06-10T20:02:39.837Z,17.30
2023-06-10T20:05:07.272Z,17.31
2023-06-10T20:07:34.204Z,17.32
2023-06-10T20:10:01.759Z,17.28
2023-06-10T20:12:28.579Z,17.26
2023-06-10T20:14:55.546Z,17.23
2023-06-10T20:17:22.568Z,17.12
2023-06-10T20:19:49.692Z,17.08
2023-06-10T20:22:16.695Z,17.05
2023-06-10T20:24:43.554Z,17.06
2023-06-10T20:27:10.485Z,16.99
2023-06-10T20:29:37.442Z,16.93
2023-06-10T20:32:04.575Z,16.78
2023-06-10T20:34:31.578Z,16.85
2023-06-10T20:36:58.434Z,16.85
2023-06-10T20:39:26.479Z,16.70
2023-06-10T20:41:53.471Z,16.65
2023-06-10T20:44:20.395Z,16.68
2023-06-10T20:46:47.183Z,16.66
2023-06-10T20:49:15.374Z,16.59
2023-06-10T20:51:42.530Z,16.62
2023-06-10T20:54:10.119Z,16.65
2023-06-10T20:56:36.986Z,16.62
2023-06-10T20:59:03.850Z,16.60
2023-06-10T21:01:30.651Z,16.59
2023-06-10T21:03:57.718Z,16.63
2023-06-10T21:06:24.728Z,16.66
2023-06-10T21:08:51.631Z,16.61
2023-06-10T21:11:19.068Z,16.54
2023-06-10T21:13:45.861Z,16.60
2023-06-10T21:16:12.785Z,16.62
2023-06-10T21:18:39.658Z,16.62
2023-06-10T21:21:06.527Z,16.61
2023-06-10T21:23:33.473Z,16.58
2023-06-10T21:26:00.492Z,16.65
2023-06-10T21:28:27.371Z,16.67
2023-06-10T21:30:54.233Z,16.74
2023-06-10T21:33:21.146Z,16.71
2023-06-10T21:35:48.043Z,16.66
2023-06-10T21:38:14.905Z,16.59
2023-06-10T21:40:41.701Z,16.60
2023-06-10T21:43:09.372Z,16.57
2023-06-10T21:45:36.485Z,16.57
2023-06-10T21:48:03.473Z,16.60
2023-06-10T21:50:30.354Z,16.51
2023-06-10T21:52:59.500Z,16.58
2023-06-10T21:55:27.986Z,16.59
2023-06-10T21:57:54.897Z,16.58
2023-06-10T22:00:21.739Z,16.58
2023-06-10T22:02:48.884Z,16.61
2023-06-10T22:05:16.204Z,16.59
2023-06-10T22:07:43.309Z,16.64
2023-06-10T22:10:10.688Z,16.64
2023-06-10T22:12:37.457Z,16.69
2023-06-10T22:15:04.808Z,16.69
2023-06-10T22:17:31.724Z,16.66
2023-06-10T22:19:58.701Z,16.64
2023-06-10T22:22:25.580Z,16.66
2023-06-10T22:24:56.954Z,16.62
2023-06-10T22:27:24.725Z,16.62
2023-06-10T22:29:51.578Z,16.63
2023-06-10T22:32:18.460Z,16.65
2023-06-10T22:34:45.532Z,16.63
2023-06-10T22:37:12.526Z,16.58
2023-06-10T22:39:39.457Z,16.63
2023-06-10T22:42:06.801Z,16.66
2023-06-10T22:44:33.653Z,16.68
2023-06-10T22:47:00.538Z,16.68
2023-06-10T22:49:27.341Z,16.59
2023-06-10T22:51:54.254Z,16.60
2023-06-10T22:54:21.021Z,16.60
2023-06-10T22:56:47.945Z,16.65
2023-06-10T22:59:14.945Z,16.72
2023-06-10T23:01:41.992Z,16.72
2023-06-10T23:04:08.896Z,16.73
2023-06-10T23:06:35.824Z,16.71
2023-06-10T23:09:02.837Z,16.67
2023-06-10T23:11:29.667Z,16.66
2023-06-10T23:13:56.553Z,16.68
2023-06-10T23:16:23.515Z,16.73
2023-06-10T23:18:50.487Z,16.76
2023-06-10T23:21:17.431Z,16.76
2023-06-10T23:23:44.307Z,16.78
2023-06-10T23:26:12.049Z,16.65
2023-06-10T23:28:38.947Z,16.64
2023-06-10T23:31:05.756Z,16.56
2023-06-10T23:33:32.738Z,16.50
2023-06-10T23:35:59.591Z,16.48
2023-06-10T23:38:26.524Z,16.50
2023-06-10T23:40:53.410Z,16.47
2023-06-10T23:43:20.427Z,16.42
2023-06-10T23:45:47.278Z,16.50
2023-06-10T23:48:14.110Z,16.36
2023-06-10T23:50:41.710Z,16.35
2023-06-10T23:53:08.512Z,16.36
2023-06-10T23:55:35.545Z,16.39
2023-06-10T23:58:03.158Z,16.40
